Time;durP1;ratioP1;P1;durP2;ratioP2;P2;SDS_P1;SDS_P2;PMS_P1;PMS_P2;Temp;Humidity;BMP_temperature;BMP_pressure;BME280_temperature;BME280_humidity;BME280_pressure;Samples;Min_cycle;Max_cycle;Signal;HPM_P1;HPM_P2
2022/11/11 00:01:06;;;;;;;32.10;14.65;;;;;;;10.31;59.74;101221.34;4404788;32;20097;-91
2022/11/11 00:03:31;;;;;;;28.83;14.65;;;;;;;10.25;59.75;101213.56;4423282;32;20385;-92
2022/11/11 00:06:04;;;;;;;32.08;14.43;;;;;;;10.16;59.73;101222.25;4424868;32;20157;-91
2022/11/11 00:08:29;;;;;;;34.20;14.82;;;;;;;10.29;59.74;101210.94;4410311;32;20117;-92
2022/11/11 00:11:05;;;;;;;32.90;14.27;;;;;;;10.21;59.74;101215.34;4414115;32;20148;-91
2022/11/11 00:13:31;;;;;;;36.55;15.50;;;;;;;10.06;59.73;101226.69;4423851;32;20498;-92
2022/11/11 00:15:56;;;;;;;35.17;13.80;;;;;;;10.16;59.75;101228.31;4408362;32;20124;-92
2022/11/11 00:26:40;;;;;;;33.95;15.40;;;;;;;9.89;59.72;101243.25;4435732;32;20123;-91
2022/11/11 00:29:05;;;;;;;39.30;15.50;;;;;;;9.98;59.73;101244.06;4429663;32;20105;-92
2022/11/11 00:31:31;;;;;;;36.97;15.15;;;;;;;9.95;59.73;101238.91;4425641;32;20446;-92
2022/11/11 00:33:56;;;;;;;32.58;16.25;;;;;;;10.09;59.74;101234.44;4420438;32;20133;-91
2022/11/11 00:36:22;;;;;;;36.25;16.23;;;;;;;10.10;59.74;101230.13;4417424;32;20092;-89
2022/11/11 00:38:48;;;;;;;37.40;15.02;;;;;;;10.07;59.74;101237.94;4414291;32;20120;-90
2022/11/11 00:41:21;;;;;;;38.80;17.25;;;;;;;10.15;59.73;101242.22;4414495;32;20081;-90
2022/11/11 00:43:47;;;;;;;35.03;15.93;;;;;;;9.92;59.72;101238.88;4412930;32;20158;-89
2022/11/11 00:51:44;;;;;;;31.92;15.35;;;;;;;10.01;59.73;101243.19;4426081;32;20127;-88
2022/11/11 00:54:09;;;;;;;38.50;17.30;;;;;;;10.00;59.73;101247.53;4426501;32;20430;-90
2022/11/11 00:56:35;;;;;;;40.08;15.60;;;;;;;10.09;59.74;101242.25;4426381;32;20124;-88
2022/11/11 00:59:02;;;;;;;38.75;16.12;;;;;;;9.99;59.73;101248.41;4424757;32;20461;-89
2022/11/11 01:01:27;;;;;;;37.75;17.42;;;;;;;9.99;59.73;101247.53;4423933;32;20136;-89
2022/11/11 01:03:52;;;;;;;34.25;15.50;;;;;;;9.96;59.73;101244.97;4425772;32;24040;-89
2022/11/11 01:06:18;;;;;;;38.13;16.40;;;;;;;10.06;59.73;101242.28;4412722;32;20492;-89
2022/11/11 01:08:43;;;;;;;35.83;16.12;;;;;;;10.03;59.73;101247.50;4426245;32;20180;-90
2022/11/11 01:11:17;;;;;;;41.75;16.40;;;;;;;10.01;59.73;101240.59;4423621;32;20156;-89
2022/11/11 01:13:43;;;;;;;35.05;15.32;;;;;;;10.02;59.73;101237.13;4410688;32;20115;-89
2022/11/11 01:16:12;;;;;;;33.08;16.23;;;;;;;10.10;59.74;101233.59;4421953;32;20141;-89
2022/11/11 01:18:38;;;;;;;31.70;16.37;;;;;;;10.30;59.74;101224.81;4423868;32;20110;-90
2022/11/11 01:21:10;;;;;;;37.42;15.68;;;;;;;10.27;59.74;101228.31;4411394;32;20097;-90
2022/11/11 01:23:36;;;;;;;35.53;16.58;;;;;;;10.21;59.74;101235.31;4436341;32;20154;-89
2022/11/11 01:26:14;;;;;;;35.03;14.20;;;;;;;10.25;59.75;101234.41;4425351;32;20160;-90
2022/11/11 01:28:39;;;;;;;34.00;15.90;;;;;;;10.19;59.74;101234.41;4413796;32;20132;-90
2022/11/11 01:31:07;;;;;;;35.88;16.23;;;;;;;10.00;59.73;101239.72;4425876;32;20101;-90
2022/11/11 01:33:32;;;;;;;40.53;16.92;;;;;;;10.03;59.73;101239.69;4426060;32;20131;-90
2022/11/11 01:36:03;;;;;;;32.42;15.52;;;;;;;9.82;59.72;101239.81;4413066;32;20156;-91
2022/11/11 01:38:28;;;;;;;35.25;16.30;;;;;;;9.90;59.73;101235.44;4425916;32;20124;-89
2022/11/11 01:40:54;;;;;;;37.85;16.35;;;;;;;10.00;59.73;101238.88;4412196;32;32291;-89
2022/11/11 01:43:21;;;;;;;36.30;15.60;;;;;;;9.89;59.72;101246.72;4425152;32;26773;-90
2022/11/11 01:45:51;;;;;;;36.83;17.20;;;;;;;9.91;59.72;101242.34;4413051;32;20116;-90
2022/11/11 01:51:27;;;;;;;36.28;16.37;;;;;;;9.94;59.72;101241.50;4426093;32;20144;-90
2022/11/11 01:53:56;;;;;;;32.78;15.13;;;;;;;9.90;59.72;101242.38;4424360;32;20164;-89
2022/11/11 01:56:22;;;;;;;35.80;16.05;;;;;;;9.89;59.72;101238.03;4410440;32;20776;-90
2022/11/11 01:58:48;;;;;;;37.88;16.37;;;;;;;9.93;59.72;101231.94;4410206;32;20093;-90
2022/11/11 02:01:13;;;;;;;34.58;15.93;;;;;;;9.84;59.72;101232.88;4410490;32;20389;-90
2022/11/11 02:03:39;;;;;;;29.63;14.30;;;;;;;9.88;59.72;101229.38;4422618;32;20129;-90
2022/11/11 02:06:06;;;;;;;36.08;16.90;;;;;;;10.07;59.73;101224.94;4410439;32;20077;-90
2022/11/11 02:08:34;;;;;;;34.65;16.30;;;;;;;9.97;59.73;101229.34;4405189;32;20167;-90
2022/11/11 02:11:15;;;;;;;39.17;15.95;;;;;;;9.99;59.73;101230.19;4421904;32;20127;-90
2022/11/11 02:16:25;;;;;;;43.65;17.48;;;;;;;9.94;59.74;101242.38;4441722;32;20100;-90
2022/11/11 02:18:51;;;;;;;33.72;16.30;;;;;;;9.98;59.73;101243.22;4424479;32;24685;-90
2022/11/11 02:21:24;;;;;;;37.95;17.23;;;;;;;10.03;59.73;101247.50;4414325;32;20486;-89
2022/11/11 02:23:52;;;;;;;41.88;17.50;;;;;;;9.94;59.74;101242.38;4412346;32;20112;-91
2022/11/11 02:26:18;;;;;;;39.78;17.70;;;;;;;9.85;59.72;101245.00;4451433;32;20131;-90
2022/11/11 02:28:43;;;;;;;37.55;16.40;;;;;;;9.69;59.71;101251.13;4424433;32;20170;-90
2022/11/11 02:31:08;;;;;;;40.85;17.27;;;;;;;9.82;59.72;101255.41;4424820;32;20148;-89
2022/11/11 02:33:34;;;;;;;38.22;17.02;;;;;;;9.79;59.71;101252.84;4426821;32;24257;-91
2022/11/11 02:35:59;;;;;;;37.15;16.52;;;;;;;9.73;59.72;101248.53;4427638;32;20162;-89
2022/11/11 02:38:25;;;;;;;44.17;17.02;;;;;;;9.73;59.72;101245.06;4427304;32;20401;-89
2022/11/11 02:43:34;;;;;;;39.38;15.95;;;;;;;9.93;59.72;101248.41;4427396;32;20112;-89
2022/11/11 02:46:01;;;;;;;32.58;15.38;;;;;;;9.81;59.72;101257.16;4414636;32;20113;-89
2022/11/11 02:48:26;;;;;;;36.38;16.23;;;;;;;9.80;59.72;101258.03;4414697;32;20953;-89
2022/11/11 02:50:52;;;;;;;37.95;15.02;;;;;;;9.96;59.73;101256.22;4411932;32;20127;-88
2022/11/11 02:53:17;;;;;;;37.67;15.70;;;;;;;9.82;59.72;101258.03;4406410;32;36577;-90
2022/11/11 02:55:43;;;;;;;38.42;14.98;;;;;;;9.90;59.72;101261.44;4426997;32;20097;-88
2022/11/11 02:58:08;;;;;;;30.62;14.02;;;;;;;9.93;59.72;101266.63;4413676;32;34177;-89
2022/11/11 03:00:33;;;;;;;33.47;14.75;;;;;;;9.93;59.72;101266.63;4426784;32;23989;-89
2022/11/11 03:02:59;;;;;;;37.28;15.43;;;;;;;9.78;59.71;101272.78;4424292;32;23407;-89
2022/11/11 03:05:24;;;;;;;38.92;15.55;;;;;;;9.86;59.72;101275.34;4424218;32;31442;-88
2022/11/11 03:07:50;;;;;;;40.38;16.25;;;;;;;9.82;59.72;101266.69;4436724;32;37311;-89
2022/11/11 03:10:15;;;;;;;40.30;17.12;;;;;;;9.79;59.73;101274.50;4427623;32;22401;-89
2022/11/11 03:12:41;;;;;;;34.45;15.98;;;;;;;9.81;59.72;101279.69;4428244;32;20121;-89
2022/11/11 03:15:06;;;;;;;33.33;15.00;;;;;;;9.73;59.72;101284.94;4414918;32;36808;-89
2022/11/11 03:17:38;;;;;;;44.75;16.37;;;;;;;9.89;59.72;101284.84;4441443;32;20154;-89
2022/11/11 03:23:12;;;;;;;42.08;15.82;;;;;;;9.78;59.71;101293.59;4440836;32;20116;-89
2022/11/11 03:25:39;;;;;;;31.52;15.70;;;;;;;9.83;59.72;101286.62;4415932;32;20651;-89
2022/11/11 03:28:05;;;;;;;40.83;16.87;;;;;;;9.73;59.72;101297.09;4412116;32;20101;-89
2022/11/11 03:30:31;;;;;;;39.50;17.55;;;;;;;9.81;59.72;101292.72;4431606;32;20167;-89
2022/11/11 03:32:57;;;;;;;42.58;17.10;;;;;;;9.75;59.72;101297.94;4414425;32;20166;-89
2022/11/11 03:35:22;;;;;;;44.50;17.37;;;;;;;9.82;59.72;101299.62;4424399;32;20098;-90
2022/11/11 03:40:31;;;;;;;40.40;17.85;;;;;;;9.63;59.71;101311.84;4430867;32;20168;-88
2022/11/11 03:42:57;;;;;;;40.42;17.00;;;;;;;9.65;59.71;101309.22;4436435;32;33960;-88
2022/11/11 03:45:22;;;;;;;40.55;16.23;;;;;;;9.62;59.71;101311.84;4425394;32;20371;-88
2022/11/11 03:47:48;;;;;;;42.95;17.37;;;;;;;9.70;59.71;101313.56;4437256;32;20117;-87
2022/11/11 03:50:13;;;;;;;38.70;17.73;;;;;;;9.61;59.71;101316.16;4437341;32;20113;-88
2022/11/11 03:52:42;;;;;;;37.60;17.00;;;;;;;9.57;59.71;101314.47;4424412;32;20116;-87
2022/11/11 03:55:08;;;;;;;38.78;17.80;;;;;;;9.57;59.70;101313.59;4447750;32;20097;-87
2022/11/11 03:57:33;;;;;;;35.88;16.27;;;;;;;9.46;59.70;101311.00;4437268;32;20120;-87
2022/11/11 03:59:59;;;;;;;42.05;17.37;;;;;;;9.50;59.71;101318.81;4411695;32;20458;-87
2022/11/11 04:10:36;;;;;;;34.65;15.73;;;;;;;9.16;59.68;101323.19;4431139;32;20127;-88
2022/11/11 04:23:58;;;;;;;37.45;16.33;;;;;;;9.21;59.69;101339.63;4430959;32;20224;-89
2022/11/11 04:26:23;;;;;;;36.30;15.52;;;;;;;9.08;59.68;101332.75;4426703;32;20700;-88
2022/11/11 04:31:32;;;;;;;39.55;16.37;;;;;;;9.12;59.69;101331.87;4439832;32;20517;-88
2022/11/11 04:33:58;;;;;;;35.72;16.02;;;;;;;9.29;59.69;101344.84;4439388;32;20109;-89
2022/11/11 04:36:23;;;;;;;36.75;16.80;;;;;;;9.13;59.68;101343.13;4413177;32;21640;-88
2022/11/11 04:41:32;;;;;;;41.08;16.75;;;;;;;8.94;59.67;101350.03;4447601;32;20396;-88
2022/11/11 04:46:42;;;;;;;33.97;16.40;;;;;;;9.01;59.68;101343.13;4430780;32;20154;-88
2022/11/11 04:49:07;;;;;;;35.50;15.00;;;;;;;9.05;59.68;101347.47;4437030;32;20144;-88
2022/11/11 04:54:17;;;;;;;40.15;15.75;;;;;;;8.86;59.66;101356.97;4429909;32;20505;-88
2022/11/11 04:56:52;;;;;;;36.97;16.02;;;;;;;8.72;59.66;101351.75;4423309;32;31457;-87
2022/11/11 04:59:19;;;;;;;44.88;16.98;;;;;;;8.70;59.66;101358.69;4428271;32;20460;-88
2022/11/11 05:04:29;;;;;;;38.42;15.23;;;;;;;8.64;59.66;101353.47;4429438;32;20119;-89
2022/11/11 05:09:38;;;;;;;36.10;16.37;;;;;;;8.74;59.66;101350.03;4430094;32;20158;-88
2022/11/11 05:12:04;;;;;;;39.13;16.87;;;;;;;8.70;59.66;101353.47;4425447;32;20112;-89
2022/11/11 05:22:42;;;;;;;40.97;17.90;;;;;;;8.69;59.66;101358.69;4430577;32;20180;-89
2022/11/11 05:25:28;;;;;;;49.30;17.50;;;;;;;8.67;59.66;101360.41;4426287;32;20089;-89
2022/11/11 05:27:53;;;;;;;58.35;17.52;;;;;;;8.70;59.66;101360.41;4437824;32;20559;-88
2022/11/11 05:30:19;;;;;;;50.05;17.67;;;;;;;8.84;59.67;101362.16;4452795;32;20138;-88
2022/11/11 05:32:45;;;;;;;44.63;17.25;;;;;;;8.82;59.67;101360.44;4424448;32;20120;-87
2022/11/11 05:35:11;;;;;;;42.80;16.67;;;;;;;8.95;59.67;101369.94;4438389;32;20129;-87
2022/11/11 05:37:36;;;;;;;55.10;17.37;;;;;;;8.87;59.66;101367.38;4426247;32;20112;-88
2022/11/11 05:40:02;;;;;;;46.85;17.42;;;;;;;8.88;59.67;101365.63;4412596;32;27226;-87
2022/11/11 05:42:27;;;;;;;49.22;18.60;;;;;;;8.88;59.67;101366.50;4412746;32;20101;-91
2022/11/11 05:44:53;;;;;;;50.92;16.90;;;;;;;8.78;59.66;101359.56;4412687;32;20140;-91
2022/11/11 05:47:18;;;;;;;42.55;17.87;;;;;;;8.83;59.67;101363.03;4414147;32;20108;-91
2022/11/11 05:49:43;;;;;;;57.42;17.37;;;;;;;8.91;59.67;101365.63;4415946;32;20448;-91
2022/11/11 05:52:12;;;;;;;57.22;18.37;;;;;;;8.91;59.67;101363.91;4416225;32;20120;-90
2022/11/11 05:54:39;;;;;;;103.65;18.85;;;;;;;8.93;59.67;101375.16;4429228;32;20123;-91
2022/11/11 05:57:04;;;;;;;90.22;17.85;;;;;;;8.99;59.67;101379.50;4417293;32;20440;-91
2022/11/11 05:59:29;;;;;;;49.90;17.25;;;;;;;9.13;59.69;101385.53;4417444;32;27458;-92
2022/11/11 06:01:55;;;;;;;58.75;17.73;;;;;;;9.03;59.68;101372.56;4418302;32;20157;-92
2022/11/11 06:04:20;;;;;;;65.15;16.75;;;;;;;9.01;59.67;101374.31;4421754;32;27391;-91
2022/11/11 06:06:46;;;;;;;45.40;18.33;;;;;;;8.92;59.67;101370.81;4453599;32;20104;-90
2022/11/11 06:09:11;;;;;;;83.95;17.35;;;;;;;8.72;59.66;101379.44;4435545;32;20140;-92
2022/11/11 06:11:37;;;;;;;54.42;17.40;;;;;;;8.92;59.67;101385.53;4423182;32;20156;-92
2022/11/11 06:14:02;;;;;;;54.83;17.55;;;;;;;9.05;59.68;101381.22;4422614;32;20121;-92
2022/11/11 06:16:28;;;;;;;41.58;15.98;;;;;;;9.01;59.67;101385.56;4416268;32;20101;-92
2022/11/11 06:18:53;;;;;;;39.63;16.80;;;;;;;9.05;59.68;101391.62;4425304;32;27998;-92
2022/11/11 06:21:18;;;;;;;35.67;16.75;;;;;;;9.09;59.68;101390.75;4412397;32;20425;-92
2022/11/11 06:23:44;;;;;;;37.97;16.50;;;;;;;8.92;59.67;101396.78;4412511;32;22314;-91
2022/11/11 06:26:13;;;;;;;36.70;17.10;;;;;;;8.95;59.67;101395.06;4400088;32;20094;-93
2022/11/11 06:28:44;;;;;;;68.87;21.25;;;;;;;8.93;59.67;101402.84;4422768;32;20470;-92
2022/11/11 06:31:10;;;;;;;34.30;16.70;;;;;;;8.97;59.67;101401.12;4410531;32;20134;-91
2022/11/11 06:33:36;;;;;;;35.40;15.65;;;;;;;8.95;59.67;101405.44;4437985;32;20138;-91
2022/11/11 06:36:01;;;;;;;36.78;16.98;;;;;;;8.96;59.67;101418.44;4425420;32;20089;-92
2022/11/11 06:38:27;;;;;;;39.22;17.40;;;;;;;9.10;59.68;101411.53;4410220;32;20098;-92
2022/11/11 06:40:52;;;;;;;36.42;16.87;;;;;;;9.16;59.68;101415.84;4411551;32;20200;-91
2022/11/11 06:43:17;;;;;;;36.72;16.90;;;;;;;9.16;59.69;101410.66;4411676;32;20465;-92
2022/11/11 06:45:43;;;;;;;36.28;16.23;;;;;;;9.32;59.69;101407.22;4411679;32;32759;-89
2022/11/11 06:48:09;;;;;;;33.72;16.65;;;;;;;9.26;59.69;101414.16;4412769;32;20227;-91
2022/11/11 06:50:34;;;;;;;38.80;17.05;;;;;;;9.38;59.69;101419.31;4425341;32;20450;-91
2022/11/11 06:53:06;;;;;;;35.70;16.30;;;;;;;9.27;59.68;101413.28;4393928;32;20143;-91
2022/11/11 06:55:32;;;;;;;36.42;17.92;;;;;;;9.30;59.69;101411.53;4408284;32;20109;-91
2022/11/11 06:58:08;;;;;;;38.83;16.58;;;;;;;9.41;59.69;101414.97;4412320;32;20139;-92
2022/11/11 07:00:34;;;;;;;37.83;16.45;;;;;;;9.57;59.71;101415.84;4412562;32;20177;-92
2022/11/11 07:03:00;;;;;;;33.40;17.05;;;;;;;9.56;59.70;101413.25;4412297;32;20465;-92
2022/11/11 07:05:25;;;;;;;37.17;17.70;;;;;;;9.58;59.71;101433.16;4428408;32;20156;-93
2022/11/11 07:07:51;;;;;;;36.95;16.80;;;;;;;9.78;59.71;101441.81;4410784;32;24144;-92
2022/11/11 07:10:16;;;;;;;41.45;19.00;;;;;;;9.79;59.71;101445.28;4412014;32;21652;-92
2022/11/11 07:12:42;;;;;;;34.97;17.42;;;;;;;9.79;59.71;101442.69;4412207;32;20093;-91
2022/11/11 07:15:08;;;;;;;35.08;15.82;;;;;;;9.84;59.72;101453.94;4399849;32;20119;-91
2022/11/11 07:17:34;;;;;;;34.65;16.30;;;;;;;9.74;59.72;101453.09;4422399;32;20633;-92
2022/11/11 07:19:59;;;;;;;35.22;16.17;;;;;;;9.78;59.71;101457.41;4414625;32;20493;-92
2022/11/11 07:22:24;;;;;;;33.80;16.17;;;;;;;9.78;59.71;101459.16;4414550;32;20446;-92
2022/11/11 07:24:50;;;;;;;32.55;15.85;;;;;;;9.82;59.72;101461.75;4403498;32;30245;-92
2022/11/11 07:27:15;;;;;;;29.35;15.15;;;;;;;9.91;59.72;101467.78;4414651;32;20164;-92
2022/11/11 07:29:41;;;;;;;32.08;15.40;;;;;;;9.97;59.73;101470.41;4426884;32;24729;-91
2022/11/11 07:32:06;;;;;;;29.55;15.93;;;;;;;10.09;59.73;101475.56;4414732;32;20144;-91
2022/11/11 07:34:31;;;;;;;29.08;14.90;;;;;;;9.97;59.73;101480.81;4404264;32;20133;-92
2022/11/11 07:36:57;;;;;;;34.25;15.05;;;;;;;10.08;59.73;101485.09;4397703;32;20174;-91
2022/11/11 07:39:22;;;;;;;30.45;15.07;;;;;;;10.24;59.74;101474.69;4414788;32;20174;-92
2022/11/11 07:41:48;;;;;;;33.15;15.05;;;;;;;10.22;59.74;101487.72;4413976;32;31974;-92
2022/11/11 07:44:13;;;;;;;32.85;15.63;;;;;;;10.29;59.74;101492.03;4409870;32;20149;-92
2022/11/11 07:46:38;;;;;;;28.58;14.40;;;;;;;10.45;59.76;101496.31;4408355;32;20445;-92
2022/11/11 07:49:04;;;;;;;29.90;13.88;;;;;;;10.48;59.76;101499.78;4426558;32;29600;-92
2022/11/11 07:51:29;;;;;;;29.30;14.30;;;;;;;10.51;59.76;101503.22;4426896;32;20152;-92
2022/11/11 07:53:55;;;;;;;26.02;14.10;;;;;;;10.57;59.76;101505.81;4427394;32;20156;-92
2022/11/11 07:56:20;;;;;;;23.12;12.68;;;;;;;10.59;59.76;101505.78;4426929;32;21263;-92
2022/11/11 07:58:45;;;;;;;31.23;13.98;;;;;;;10.52;59.76;101501.50;4414230;32;22674;-92
2022/11/11 08:01:11;;;;;;;25.75;13.60;;;;;;;10.57;59.76;101499.72;4407679;32;20123;-91
2022/11/11 08:03:48;;;;;;;30.27;14.13;;;;;;;10.61;59.76;101494.50;4402008;32;20226;-92
2022/11/11 08:06:14;;;;;;;29.12;13.60;;;;;;;10.83;59.77;101492.66;4406368;32;20183;-92
2022/11/11 08:08:40;;;;;;;24.80;13.18;;;;;;;11.05;59.78;101488.19;4414837;32;20118;-92
2022/11/11 08:11:05;;;;;;;25.05;12.70;;;;;;;11.11;59.79;101489.88;4413780;32;20513;-92
2022/11/11 08:13:40;;;;;;;29.23;13.82;;;;;;;11.20;59.79;101495.94;4404161;32;34142;-91
2022/11/11 08:16:11;;;;;;;25.85;13.25;;;;;;;11.50;59.81;101492.22;4410669;32;20121;-92
2022/11/11 08:18:36;;;;;;;22.17;12.05;;;;;;;11.55;59.81;101492.19;4414882;32;20123;-91
2022/11/11 08:21:02;;;;;;;25.12;13.40;;;;;;;11.66;59.82;101492.97;4413175;32;24758;-92
2022/11/11 08:23:34;;;;;;;22.52;12.60;;;;;;;11.70;59.82;101484.22;4412031;32;20153;-92
2022/11/11 08:26:03;;;;;;;25.17;12.37;;;;;;;11.88;59.83;101476.28;4425411;32;20098;-92
2022/11/11 08:28:29;;;;;;;25.83;12.98;;;;;;;12.08;59.84;101483.03;4412268;32;20101;-91
2022/11/11 08:30:54;;;;;;;24.30;11.63;;;;;;;12.13;59.84;101483.84;4414551;32;20111;-92
2022/11/11 08:33:20;;;;;;;18.70;11.23;;;;;;;12.39;59.86;101486.16;4412086;32;20109;-92
2022/11/11 08:35:45;;;;;;;20.75;11.95;;;;;;;12.49;59.86;101487.78;4426980;32;20101;-92
2022/11/11 08:38:12;;;;;;;21.35;10.95;;;;;;;12.50;59.86;101498.19;4414319;32;20148;-92
2022/11/11 08:40:37;;;;;;;18.95;11.65;;;;;;;12.72;59.87;101506.62;4427585;32;20136;-91
2022/11/11 08:43:02;;;;;;;23.20;12.20;;;;;;;12.56;59.87;101505.13;4415078;32;20101;-92
2022/11/11 08:45:28;;;;;;;19.75;11.48;;;;;;;12.59;59.87;101500.72;4413684;32;20132;-92
2022/11/11 08:47:53;;;;;;;27.25;12.43;;;;;;;12.75;59.88;101497.87;4423402;32;20109;-92
2022/11/11 08:50:18;;;;;;;20.58;11.50;;;;;;;12.80;59.88;101490.87;4426588;32;20066;-92
2022/11/11 08:52:48;;;;;;;21.15;11.35;;;;;;;12.72;59.87;101482.25;4420273;32;23247;-92
2022/11/11 08:55:13;;;;;;;20.65;11.40;;;;;;;12.75;59.88;101492.66;4415790;32;20113;-92
2022/11/11 08:57:38;;;;;;;22.55;11.50;;;;;;;12.97;59.88;101490.63;4413624;32;20133;-92
2022/11/11 09:00:04;;;;;;;22.65;10.75;;;;;;;12.91;59.89;101491.59;4410892;32;30015;-92
2022/11/11 09:02:30;;;;;;;25.20;13.10;;;;;;;12.98;59.89;101489.75;4411459;32;20126;-92
2022/11/11 09:04:55;;;;;;;30.98;15.25;;;;;;;13.16;59.90;101492.97;4413525;32;21942;-92
2022/11/11 09:07:21;;;;;;;20.23;11.27;;;;;;;13.30;59.91;101490.19;4413192;32;21820;-92
2022/11/11 09:09:46;;;;;;;21.60;11.55;;;;;;;13.37;59.91;101494.41;4411397;32;20168;-92
2022/11/11 09:12:11;;;;;;;22.92;12.25;;;;;;;13.29;59.91;101498.91;4410952;32;26350;-92
2022/11/11 09:14:37;;;;;;;19.90;9.95;;;;;;;13.31;59.91;101504.97;4413938;32;20170;-92
2022/11/11 09:17:02;;;;;;;20.45;11.02;;;;;;;13.24;59.90;101489.38;4426254;32;20140;-92
2022/11/11 09:19:27;;;;;;;22.00;12.10;;;;;;;13.23;59.90;101487.66;4413843;32;20390;-92
2022/11/11 09:21:53;;;;;;;20.65;11.63;;;;;;;13.30;59.91;101499.78;4413455;32;21321;-93
2022/11/11 09:24:18;;;;;;;22.37;11.02;;;;;;;13.42;59.92;101502.19;4414203;32;20133;-92
2022/11/11 09:26:47;;;;;;;22.52;11.07;;;;;;;13.34;59.90;101496.22;4414035;32;20186;-92
2022/11/11 09:29:12;;;;;;;19.55;11.35;;;;;;;13.47;59.91;101501.22;4426528;32;20116;-92
2022/11/11 09:31:38;;;;;;;27.13;12.82;;;;;;;13.55;59.92;101497.63;4413379;32;23994;-92
2022/11/11 09:34:05;;;;;;;23.62;15.27;;;;;;;13.52;59.92;101490.72;4411238;32;20165;-93
2022/11/11 09:36:31;;;;;;;23.50;13.43;;;;;;;13.37;59.91;101501.41;4426599;32;20176;-92
2022/11/11 09:38:56;;;;;;;21.40;11.88;;;;;;;13.49;59.92;101499.47;4413765;32;20124;-92
2022/11/11 09:41:44;;;;;;;23.05;12.25;;;;;;;13.36;59.91;101497.06;4413725;32;20101;-92
2022/11/11 09:44:24;;;;;;;19.62;12.25;;;;;;;13.35;59.91;101490.09;4426573;32;20120;-92
2022/11/11 09:47:14;;;;;;;22.92;11.32;;;;;;;13.43;59.92;101493.44;4426761;32;20136;-93
2022/11/11 09:49:55;;;;;;;31.33;11.77;;;;;;;13.25;59.90;101484.16;4424040;32;20110;-93
2022/11/11 09:52:22;;;;;;;21.60;11.65;;;;;;;13.21;59.90;101485.94;4434637;32;20100;-92
2022/11/11 09:54:55;;;;;;;26.17;12.27;;;;;;;13.27;59.92;101482.38;4411446;32;20113;-93
2022/11/11 09:57:32;;;;;;;26.05;13.13;;;;;;;13.33;59.91;101486.66;4416058;32;20102;-93
2022/11/11 09:59:57;;;;;;;22.13;12.45;;;;;;;13.47;59.91;101482.03;4412069;32;20160;-93
2022/11/11 10:02:33;;;;;;;24.80;12.18;;;;;;;13.60;59.92;101482.72;4411909;32;20143;-93
2022/11/11 10:05:07;;;;;;;25.88;11.43;;;;;;;13.90;59.94;101471.72;4413773;32;20108;-93
2022/11/11 10:07:39;;;;;;;26.40;13.62;;;;;;;14.19;59.96;101479.00;4413593;32;20481;-93
2022/11/11 10:10:11;;;;;;;18.23;11.60;;;;;;;14.30;59.96;101474.44;4413615;32;20119;-93
2022/11/11 10:12:41;;;;;;;20.35;11.23;;;;;;;14.37;59.96;101483.88;4424664;32;20065;-93
2022/11/11 10:15:10;;;;;;;;;;;;;;;14.57;59.98;101477.41;4411499;32;20168;-93
2022/11/11 10:17:41;;;;;;;20.80;11.25;;;;;;;14.70;59.98;101471.91;4423425;32;20003;-93
2022/11/11 10:20:24;;;;;;;19.92;10.65;;;;;;;14.76;59.98;101470.91;4432983;32;20707;-93
2022/11/11 10:23:06;;;;;;;19.17;10.13;;;;;;;14.73;59.99;101473.59;4410148;32;20102;-93
2022/11/11 10:25:32;;;;;;;19.12;11.43;;;;;;;14.88;59.99;101465.38;4411166;32;20112;-93
2022/11/11 10:27:58;;;;;;;21.37;9.93;;;;;;;14.85;59.99;101457.56;4410064;32;21940;-92
2022/11/11 10:30:28;;;;;;;19.60;9.50;;;;;;;14.85;59.99;101459.34;4410933;32;20102;-93
2022/11/11 10:32:57;;;;;;;17.75;10.38;;;;;;;14.73;59.99;101457.84;4420331;32;20109;-93
2022/11/11 10:35:24;;;;;;;18.98;10.07;;;;;;;14.93;59.99;101458.28;4412952;32;20154;-92
2022/11/11 10:38:20;;;;;;;19.83;9.05;;;;;;;14.95;60.00;101443.37;4412944;32;20109;-92
2022/11/11 10:40:47;;;;;;;18.80;9.75;;;;;;;14.92;59.99;101446.06;4400665;32;20175;-93
2022/11/11 10:43:19;;;;;;;17.20;9.65;;;;;;;14.95;60.00;101446.00;4415554;32;20112;-93
2022/11/11 10:46:01;;;;;;;23.40;9.88;;;;;;;15.20;60.01;101445.41;4428268;32;20141;-93
2022/11/11 10:48:45;;;;;;;18.50;10.48;;;;;;;15.31;60.01;101446.00;4429663;32;20503;-92
2022/11/11 10:51:11;;;;;;;17.83;9.60;;;;;;;15.57;60.03;101448.84;4428872;32;20109;-94
2022/11/11 10:54:10;;;;;;;19.35;10.80;;;;;;;15.64;60.04;101446.97;4415218;32;20155;-93
2022/11/11 10:56:57;;;;;;;21.17;11.27;;;;;;;15.84;60.04;101459.56;4429896;32;20148;-93
2022/11/11 10:59:25;;;;;;;20.60;10.18;;;;;;;15.83;60.04;101460.47;4428435;32;20112;-94
2022/11/11 11:02:00;;;;;;;21.23;10.93;;;;;;;15.83;60.04;101457.84;4415679;32;20084;-93
2022/11/11 11:04:39;;;;;;;23.85;11.55;;;;;;;15.90;60.04;101455.03;4427983;32;20097;-93
2022/11/11 11:07:04;;;;;;;19.48;10.15;;;;;;;15.99;60.05;101448.66;4412573;32;20135;-94
2022/11/11 11:10:02;;;;;;;18.05;10.40;;;;;;;16.13;60.06;101450.91;4413924;32;20446;-93
2022/11/11 11:12:48;;;;;;;22.33;11.00;;;;;;;15.96;60.05;101441.72;4427691;32;20134;-93
2022/11/11 11:15:19;;;;;;;21.40;11.63;;;;;;;15.70;60.03;101427.56;4428112;32;20131;-93
2022/11/11 11:17:54;;;;;;;28.80;12.18;;;;;;;15.67;60.03;101425.88;4415401;32;20077;-93
2022/11/11 11:20:20;;;;;;;20.88;11.48;;;;;;;15.66;60.03;101424.16;4415862;32;20164;-93
2022/11/11 11:22:54;;;;;;;20.25;10.68;;;;;;;15.69;60.03;101421.47;4415732;32;20433;-93
2022/11/11 11:25:20;;;;;;;25.83;11.43;;;;;;;15.59;60.03;101418.19;4416560;32;20115;-93
2022/11/11 11:27:46;;;;;;;20.48;10.40;;;;;;;15.62;60.03;101419.91;4416948;32;20105;-93
2022/11/11 11:30:13;;;;;;;19.17;10.30;;;;;;;15.54;60.02;101411.31;4424028;32;20074;-92
2022/11/11 11:32:41;;;;;;;22.35;11.73;;;;;;;15.45;60.02;101415.06;4427797;32;20085;-94
2022/11/11 11:35:06;;;;;;;22.92;10.75;;;;;;;15.22;60.01;101413.00;4425417;32;20120;-93
2022/11/11 11:37:33;;;;;;;23.27;12.13;;;;;;;15.23;60.01;101416.50;4419734;32;20158;-93
2022/11/11 11:40:05;;;;;;;24.92;12.43;;;;;;;15.33;60.02;101413.59;4402850;32;20183;-93
2022/11/11 11:42:35;;;;;;;19.90;11.18;;;;;;;15.31;60.01;101417.16;4408313;32;20163;-94
2022/11/11 11:45:28;;;;;;;20.10;12.05;;;;;;;15.39;60.01;101409.97;4420805;32;20783;-93
2022/11/11 11:47:53;;;;;;;22.67;11.82;;;;;;;15.52;60.02;101415.75;4421721;32;20461;-93
2022/11/11 11:50:21;;;;;;;20.83;12.70;;;;;;;15.45;60.01;101420.31;4436012;32;20166;-93
2022/11/11 11:52:47;;;;;;;20.35;11.98;;;;;;;15.36;60.02;101424.00;4440523;32;20176;-93
2022/11/11 11:55:15;;;;;;;27.87;12.83;;;;;;;15.48;60.03;101425.47;4440321;32;20336;-92
2022/11/11 11:57:52;;;;;;;24.27;13.13;;;;;;;15.70;60.05;101423.19;4413296;32;20252;-94
2022/11/11 12:00:19;;;;;;;30.50;14.95;;;;;;;15.61;60.03;101423.41;4424968;32;20825;-93
2022/11/11 12:03:06;;;;;;;51.30;25.75;;;;;;;15.72;60.04;101431.88;4426451;32;20456;-94
2022/11/11 12:05:48;;;;;;;30.77;18.70;;;;;;;15.85;60.04;101424.50;4429990;32;20109;-93
2022/11/11 12:08:38;;;;;;;29.10;14.32;;;;;;;15.67;60.03;101436.41;4399967;32;20151;-93
2022/11/11 12:11:25;;;;;;;27.42;14.02;;;;;;;15.70;60.04;101431.06;4438088;32;20121;-93
2022/11/11 12:14:09;;;;;;;21.77;13.25;;;;;;;15.81;60.04;101436.00;4403204;32;20090;-93
2022/11/11 12:16:42;;;;;;;22.20;13.52;;;;;;;15.79;60.04;101433.44;4419152;32;20119;-93
2022/11/11 12:19:36;;;;;;;25.75;13.32;;;;;;;15.76;60.04;101448.41;4415401;32;20799;-93
2022/11/11 12:22:24;;;;;;;35.70;15.80;;;;;;;15.73;60.04;101440.59;4426242;32;20104;-93
2022/11/11 12:25:02;;;;;;;25.42;12.60;;;;;;;15.88;60.05;101429.72;4414303;32;20093;-93
2022/11/11 12:27:35;;;;;;;24.77;12.98;;;;;;;15.86;60.04;101428.91;4421817;32;20135;-93
2022/11/11 12:30:04;;;;;;;58.65;24.25;;;;;;;15.80;60.04;101431.66;4427201;32;20105;-94
2022/11/11 12:32:29;;;;;;;42.40;19.25;;;;;;;15.90;60.04;101417.41;4440313;32;20127;-93